createdAt,value
2017-10-08T00:06:40.000Z,1003.359
2017-10-08T00:16:40.000Z,1003.431
2017-10-08T00:26:40.000Z,1003.493
2017-10-08T00:36:40.000Z,1003.579
2017-10-08T00:46:40.000Z,1003.64
2017-10-08T00:56:40.000Z,1003.553
2017-10-08T01:06:40.000Z,1003.605
2017-10-08T01:16:40.000Z,1003.72
2017-10-08T01:26:42.000Z,1003.736
2017-10-08T01:36:41.000Z,1003.728
2017-10-08T01:46:41.000Z,1003.72
2017-10-08T01:56:41.000Z,1003.739
2017-10-08T02:06:41.000Z,1003.768
2017-10-08T02:16:41.000Z,1003.776
2017-10-08T02:26:41.000Z,1003.859
2017-10-08T02:36:41.000Z,1003.995
2017-10-08T02:46:41.000Z,1004.055
2017-10-08T02:56:41.000Z,1004.153
2017-10-08T03:06:41.000Z,1004.319
2017-10-08T03:16:41.000Z,1004.412
2017-10-08T03:26:41.000Z,1004.451
2017-10-08T03:36:41.000Z,1004.498
2017-10-08T03:46:41.000Z,1004.641
2017-10-08T03:56:41.000Z,1004.73
2017-10-08T04:06:41.000Z,1004.745
2017-10-08T04:16:41.000Z,1004.708
2017-10-08T04:26:41.000Z,1004.725
2017-10-08T04:36:41.000Z,1004.809
2017-10-08T04:46:41.000Z,1004.839
2017-10-08T04:56:41.000Z,1004.948
2017-10-08T05:06:41.000Z,1005.106
2017-10-08T05:16:41.000Z,1005.209
2017-10-08T05:26:41.000Z,1005.329
2017-10-08T05:36:41.000Z,1005.348
2017-10-08T05:46:41.000Z,1005.475
2017-10-08T05:56:41.000Z,1005.594
2017-10-08T06:06:41.000Z,1005.709
2017-10-08T06:16:41.000Z,1005.897
2017-10-08T06:26:41.000Z,1006.006
2017-10-08T06:36:41.000Z,1006.004
2017-10-08T06:46:41.000Z,1006.072
2017-10-08T06:56:41.000Z,1006.122
2017-10-08T07:06:41.000Z,1006.193
2017-10-08T18:26:44.000Z,1011.981
2017-10-08T18:36:43.000Z,1011.987
2017-10-08T18:46:43.000Z,1012.17
2017-10-08T18:56:44.000Z,1012.176
2017-10-08T19:06:43.000Z,1012.311
2017-10-08T19:26:43.000Z,1012.411
2017-10-08T19:36:43.000Z,1012.433
2017-10-08T19:46:43.000Z,1012.497
2017-10-08T19:56:46.000Z,1012.584
2017-10-08T20:06:43.000Z,1012.688
2017-10-08T20:16:43.000Z,1012.811
2017-10-08T20:26:44.000Z,1012.888
2017-10-08T20:36:43.000Z,1012.914
2017-10-08T20:46:43.000Z,1012.935
2017-10-08T20:56:45.000Z,1012.923
2017-10-08T21:06:43.000Z,1012.933
2017-10-08T21:16:43.000Z,1012.957
2017-10-08T21:26:43.000Z,1012.926
2017-10-08T21:36:43.000Z,1012.831
2017-10-08T21:46:43.000Z,1012.801
2017-10-08T21:56:43.000Z,1012.817
2017-10-08T22:06:43.000Z,1012.877
2017-10-08T22:16:43.000Z,1012.902
2017-10-08T22:26:43.000Z,1012.903
2017-10-08T22:36:43.000Z,1012.955
2017-10-08T22:46:43.000Z,1012.924
2017-10-08T22:56:43.000Z,1012.9
2017-10-08T23:06:43.000Z,1012.9
2017-10-08T23:16:43.000Z,1012.881
2017-10-08T23:26:43.000Z,1012.943
2017-10-08T23:36:43.000Z,1012.919
2017-10-08T23:46:43.000Z,1012.913
2017-10-08T23:56:43.000Z,1012.944
